Ada, KS

1:11 PM CDT on September 21, 2014 (GMT -0500)
ERC Field | Change Station
CLOSE
Current Station
Personal Weather Station
Location: Minneapolis, KS
Elevation: 1309 ft
Nearby Weather Stations

Elev 1309 ft 39.10 °N, 97.61 °W | Updated 7 minutes ago

Clear
Clear
82.4 °F
Feels Like 81 °F
N
5.8
Wind Variable Wind from NNE

Today
High -- | Low -- °F
--% Chance of Precip.
Yesterday
High -- | Low -- °F
Precip. -- in
7:17 AM 7:29 PM
Waning Crescent, 6% visible
Pressure 30.23 in
Visibility 10.0 miles
Clouds Clear
Heat Index 81 °F
Dew Point 48 °F
Humidity 30%
Rainfall 0.00 in
Snow Depth Not available.
UV 8 out of 12
Pollen 5.50 out of 12
Air Quality Not available.
Flu Activity Not available.
METAR KSLN 211753Z 01012KT 10SM CLR 26/08 A3026 RMK AO2 SLP235 T02560083 10256 20144 50003

More Conditions Fewer Conditions

Pressure 30.23 in
Visibility 10.0 miles
Clouds Clear
Heat Index 81 °F
Dew Point 48 °F
Humidity 30%
Rainfall 0.00 in
Snow Depth Not available.
UV 8 out of 12
Pollen 5.50 out of 12
Air Quality Not available.
Flu Activity Not available.
METAR KSLN 211753Z 01012KT 10SM CLR 26/08 A3026 RMK AO2 SLP235 T02560083 10256 20144 50003

More Conditions Fewer Conditions

10-Day Weather Forecast

Almanac

Astronomy

Sep. 21, 2014 Rise Set
Actual Time 7:17 AM CDT 7:29 PM CDT
Civil Twilight 6:50 AM CDT 7:56 PM CDT
Nautical Twilight 6:19 AM CDT 8:27 PM CDT
Astronomical Twilight 5:47 AM CDT 8:59 PM CDT
Moon 4:53 AM CDT 6:05 PM CDT
Length of Visible Light 13h 05m
Length of Day
12h 11m
Tomorrow will be 2m 32s shorter.
Waning Crescent, 6% of the Moon is Illuminated
Today
Waning Crescent
Sep 24
New
Oct 1
First Quarter
Oct 8
Full
Oct 15
Last Quarter

Today's Extremes

State Highs State Lows

Community

WunderPhotos

Upload Photos

1,755,213 photos uploaded!

WunderBlogs® & News

Nearby

Snow Depth

Station Depth Elevation
No new snow has been reported.

Earthquake Activity

City Distance Mag. Time & Date
No recent earthquake activity has been reported nearby.
Minimum magnitude displayed is 2.5.

Coastal Water Temperatures

Place Temperature
No Stations Reporting

Nearby Weather Stations